createdAt,value
2022-09-23T00:07:32.545Z,100632.00
2022-09-23T00:17:35.239Z,100641.44
2022-09-23T00:27:40.636Z,100634.59
2022-09-23T00:37:48.599Z,100633.75
2022-09-23T00:48:02.800Z,100625.16
2022-09-23T00:58:09.807Z,100615.63
2022-09-23T01:08:23.821Z,100619.06
2022-09-23T01:19:04.304Z,100628.13
2022-09-23T01:29:36.903Z,100622.06
2022-09-23T01:40:01.821Z,100616.66
2022-09-23T01:50:42.718Z,100620.81
2022-09-23T02:00:55.870Z,100614.00
2022-09-23T02:11:10.602Z,100608.00
2022-09-23T02:21:15.505Z,100607.03
2022-09-23T02:31:38.509Z,100604.41
2022-09-23T02:41:45.126Z,100600.72
2022-09-23T02:51:50.908Z,100605.78
2022-09-23T03:02:14.880Z,100607.38
2022-09-23T03:12:34.449Z,100601.28
2022-09-23T03:22:49.959Z,100603.72
2022-09-23T03:32:54.979Z,100604.53
2022-09-23T03:42:57.915Z,100600.25
2022-09-23T03:53:01.377Z,100601.06
2022-09-23T04:03:03.982Z,100607.78
2022-09-23T04:13:07.805Z,100615.22
2022-09-23T04:23:09.363Z,100613.50
2022-09-23T04:33:12.920Z,100613.56
2022-09-23T04:43:28.035Z,100616.97
2022-09-23T04:53:31.758Z,100620.63
2022-09-23T05:03:36.019Z,100626.06
2022-09-23T05:13:37.743Z,100636.66
2022-09-23T05:23:40.850Z,100641.25
2022-09-23T05:33:44.472Z,100652.88
2022-09-23T05:43:47.537Z,100661.28
2022-09-23T05:53:51.288Z,100659.28
2022-09-23T06:03:54.790Z,100656.50
2022-09-23T06:14:02.598Z,100650.16
2022-09-23T06:24:05.072Z,100664.47
2022-09-23T06:34:14.192Z,100670.16
2022-09-23T06:44:17.015Z,100671.44
2022-09-23T06:54:18.609Z,100677.81
2022-09-23T07:04:21.271Z,100680.66
2022-09-23T07:14:24.128Z,100681.63
2022-09-23T07:24:26.978Z,100682.59
2022-09-23T07:34:28.601Z,100681.63
2022-09-23T07:44:31.757Z,100679.66
2022-09-23T07:54:36.342Z,100675.94
2022-09-23T08:04:39.262Z,100675.63
2022-09-23T08:14:40.888Z,100676.16
2022-09-23T08:24:44.750Z,100673.25
2022-09-23T08:34:46.459Z,100649.47
2022-09-23T08:44:53.358Z,100647.03
2022-09-23T08:54:55.679Z,100653.75
2022-09-23T09:05:03.450Z,100650.38
2022-09-23T09:15:12.491Z,100645.00
2022-09-23T09:26:05.205Z,100655.31
2022-09-23T09:36:36.602Z,100634.97
2022-09-23T09:46:52.127Z,100630.53
2022-09-23T09:56:56.099Z,100619.53
2022-09-23T10:07:27.251Z,100605.16
2022-09-23T10:17:38.961Z,100607.63
2022-09-23T10:27:42.576Z,100604.50
2022-09-23T10:37:56.637Z,100600.31
2022-09-23T10:48:07.744Z,100586.13
2022-09-23T10:58:19.523Z,100584.44
2022-09-23T11:08:51.541Z,100584.06
2022-09-23T11:19:13.313Z,100572.25
2022-09-23T11:29:34.411Z,100558.88
2022-09-23T11:39:42.645Z,100529.53
2022-09-23T11:50:13.005Z,100518.72
2022-09-23T12:00:29.014Z,100520.03
2022-09-23T12:10:56.303Z,100535.91
2022-09-23T12:21:49.066Z,100522.75
2022-09-23T12:31:54.742Z,100503.44
2022-09-23T12:42:06.670Z,100498.59
2022-09-23T12:52:12.475Z,100490.94
2022-09-23T13:02:38.587Z,100479.69
2022-09-23T13:12:42.739Z,100458.25
2022-09-23T13:22:54.083Z,100459.41
2022-09-23T13:33:12.930Z,100458.44
2022-09-23T13:43:41.408Z,100458.75
2022-09-23T13:53:52.399Z,100467.09
2022-09-23T14:03:55.992Z,100461.72
2022-09-23T14:13:59.744Z,100432.75
2022-09-23T14:24:21.010Z,100421.63
2022-09-23T14:34:52.431Z,100425.00
2022-09-23T14:44:54.147Z,100422.72
2022-09-23T14:54:55.909Z,100421.03
2022-09-23T15:05:18.106Z,100413.00
2022-09-23T15:15:30.089Z,100410.66
2022-09-23T15:25:51.418Z,100410.97
2022-09-23T15:35:54.836Z,100399.56
2022-09-23T15:46:05.481Z,100391.47
2022-09-23T16:05:52.519Z,100406.31
2022-09-23T16:15:54.305Z,100405.66
2022-09-23T16:26:05.772Z,100403.91
2022-09-23T16:36:21.370Z,100403.88
2022-09-23T16:46:25.037Z,100401.13
2022-09-23T16:56:29.060Z,100405.78
2022-09-23T17:06:32.485Z,100407.56
2022-09-23T17:16:35.240Z,100405.75
2022-09-23T17:26:38.375Z,100411.59
2022-09-23T17:36:40.660Z,100416.88
2022-09-23T17:46:43.849Z,100409.16
2022-09-23T17:56:45.457Z,100432.13
2022-09-23T18:06:48.536Z,100422.25
2022-09-23T18:16:51.308Z,100443.19
2022-09-23T18:26:54.988Z,100434.84
2022-09-23T18:36:57.748Z,100430.75
2022-09-23T18:46:59.580Z,100435.25
2022-09-23T18:57:03.629Z,100443.06
2022-09-23T19:07:05.650Z,100441.44
2022-09-23T19:17:08.124Z,100435.50
2022-09-23T19:27:15.003Z,100450.16
2022-09-23T19:37:16.755Z,100444.13
2022-09-23T19:47:20.655Z,100432.94
2022-09-23T19:57:30.120Z,100446.72
2022-09-23T20:07:31.723Z,100447.53
2022-09-23T20:17:33.838Z,100450.94
2022-09-23T20:27:35.699Z,100451.78
2022-09-23T20:37:38.272Z,100442.22
2022-09-23T20:47:40.655Z,100443.00
2022-09-23T20:57:43.340Z,100433.44
2022-09-23T21:07:49.158Z,100432.44
2022-09-23T21:17:50.753Z,100434.06
2022-09-23T21:27:53.846Z,100428.81
2022-09-23T21:38:00.965Z,100434.66
2022-09-23T21:48:02.732Z,100450.84
2022-09-23T21:58:05.410Z,100449.88
2022-09-23T22:08:09.295Z,100460.19
2022-09-23T22:18:12.071Z,100447.84
2022-09-23T22:28:32.251Z,100456.34
2022-09-23T22:38:33.794Z,100452.84
2022-09-23T22:48:35.417Z,100452.75
2022-09-23T22:58:37.095Z,100453.38
2022-09-23T23:08:38.864Z,100440.56
2022-09-23T23:18:43.527Z,100447.94
2022-09-23T23:28:45.219Z,100445.22
2022-09-23T23:38:48.343Z,100438.28
2022-09-23T23:48:51.235Z,100442.44
2022-09-23T23:58:57.848Z,100443.94
